createdAt,value
2019-05-25T00:00:28.395Z,100729.00
2019-05-25T00:06:09.213Z,100732.88
2019-05-25T00:08:55.371Z,100728.58
2019-05-25T00:14:39.368Z,100735.08
2019-05-25T00:17:12.721Z,100730.64
2019-05-25T00:19:45.584Z,100725.64
2019-05-25T00:22:18.609Z,100728.07
2019-05-25T00:24:51.412Z,100732.20
2019-05-25T00:27:24.029Z,100739.70
2019-05-25T00:29:56.071Z,100733.56
2019-05-25T00:32:39.112Z,100741.95
2019-05-25T00:35:19.858Z,100734.57
2019-05-25T00:37:55.806Z,100738.00
2019-05-25T00:40:28.752Z,100742.73
2019-05-25T00:43:10.768Z,100745.08
2019-05-25T00:45:52.819Z,100745.08
2019-05-25T00:48:27.292Z,100746.36
2019-05-25T00:51:09.019Z,100735.95
2019-05-25T00:53:41.890Z,100739.28
2019-05-25T00:56:14.165Z,100743.47
2019-05-25T00:58:46.644Z,100735.20
2019-05-25T01:01:19.468Z,100736.05
2019-05-25T01:03:52.167Z,100740.88
2019-05-25T01:06:29.693Z,100747.70
2019-05-25T01:09:02.034Z,100748.00
2019-05-25T01:11:38.938Z,100748.67
2019-05-25T01:14:18.713Z,100744.11
2019-05-25T01:16:50.245Z,100740.91
2019-05-25T01:19:22.119Z,100739.48
2019-05-25T01:21:54.411Z,100746.86
2019-05-25T01:24:42.914Z,100748.94
2019-05-25T01:27:05.100Z,100753.16
2019-05-25T01:29:38.122Z,100748.23
2019-05-25T01:32:10.815Z,100753.27
2019-05-25T01:34:42.770Z,100754.41
2019-05-25T01:37:18.145Z,100754.25
2019-05-25T01:39:51.103Z,100758.55
2019-05-25T01:42:23.530Z,100759.88
2019-05-25T01:44:55.944Z,100765.44
2019-05-25T01:47:28.525Z,100766.49
2019-05-25T01:50:01.517Z,100760.59
2019-05-25T01:52:34.189Z,100762.34
2019-05-25T01:55:08.016Z,100753.99
2019-05-25T01:57:41.256Z,100769.95
2019-05-25T02:00:14.174Z,100763.02
2019-05-25T02:02:46.757Z,100766.22
2019-05-25T02:05:19.074Z,100767.19
2019-05-25T02:07:51.176Z,100769.31
2019-05-25T02:10:30.552Z,100758.33
2019-05-25T02:13:02.651Z,100764.53
2019-05-25T02:15:35.615Z,100763.66
2019-05-25T02:18:08.169Z,100758.38
2019-05-25T02:20:40.093Z,100760.18
2019-05-25T02:23:12.790Z,100767.56
2019-05-25T02:25:45.562Z,100766.47
2019-05-25T02:28:18.065Z,100759.91
2019-05-25T02:30:51.524Z,100766.25
2019-05-25T02:33:23.840Z,100763.16
2019-05-25T02:35:56.692Z,100763.20
2019-05-25T02:38:29.996Z,100759.88
2019-05-25T02:41:02.392Z,100755.92
2019-05-25T02:43:36.009Z,100755.52
2019-05-25T02:46:08.422Z,100758.93
2019-05-25T02:48:41.077Z,100755.68
2019-05-25T02:51:14.756Z,100746.68
2019-05-25T02:53:47.403Z,100741.01
2019-05-25T02:56:21.848Z,100741.66
2019-05-25T02:58:56.417Z,100732.98
2019-05-25T03:01:34.045Z,100738.16
2019-05-25T03:04:06.085Z,100728.84
2019-05-25T03:06:38.552Z,100726.81
2019-05-25T03:09:10.447Z,100732.33
2019-05-25T03:11:43.757Z,100739.55
2019-05-25T03:14:17.466Z,100739.64
2019-05-25T03:16:49.734Z,100731.59
2019-05-25T03:19:21.689Z,100733.33
2019-05-25T03:21:54.202Z,100727.38
2019-05-25T03:24:26.394Z,100722.84
2019-05-25T03:27:00.380Z,100720.17
2019-05-25T03:29:36.645Z,100713.61
2019-05-25T03:32:10.362Z,100717.68
2019-05-25T03:34:43.354Z,100711.75
2019-05-25T03:37:19.070Z,100718.31
2019-05-25T03:39:53.065Z,100713.55
2019-05-25T03:42:26.229Z,100708.34
2019-05-25T03:45:00.013Z,100710.45
2019-05-25T03:47:32.295Z,100701.91
2019-05-25T03:50:05.147Z,100691.73
2019-05-25T03:52:37.870Z,100687.39
2019-05-25T03:55:10.178Z,100689.95
2019-05-25T03:57:42.464Z,100688.77
2019-05-25T04:00:16.321Z,100681.92
2019-05-25T04:02:48.943Z,100681.28
2019-05-25T04:05:21.745Z,100684.93
2019-05-25T04:07:54.709Z,100681.54
2019-05-25T04:10:31.739Z,100685.82
2019-05-25T04:13:03.823Z,100684.78
2019-05-25T04:15:36.239Z,100683.63
2019-05-25T04:18:08.681Z,100678.12
2019-05-25T04:20:40.614Z,100677.71
2019-05-25T04:23:13.230Z,100679.91
2019-05-25T04:25:45.700Z,100686.70
2019-05-25T04:28:19.097Z,100682.56
2019-05-25T04:30:52.076Z,100673.06
2019-05-25T04:33:25.636Z,100671.76
2019-05-25T04:35:58.939Z,100671.45
2019-05-25T04:38:32.139Z,100659.05
2019-05-25T04:41:04.958Z,100661.47
2019-05-25T04:43:38.079Z,100654.91
2019-05-25T04:46:10.416Z,100650.77
2019-05-25T04:48:43.276Z,100640.78
2019-05-25T04:51:16.181Z,100646.63
2019-05-25T04:53:48.674Z,100646.94
2019-05-25T04:56:38.839Z,100638.59
2019-05-25T04:59:00.517Z,100635.20
2019-05-25T05:01:33.523Z,100631.62
2019-05-25T05:04:06.234Z,100620.25
2019-05-25T05:06:39.479Z,100621.07
2019-05-25T05:09:12.608Z,100617.60
2019-05-25T05:11:45.403Z,100613.80
2019-05-25T05:14:18.250Z,100613.13
2019-05-25T05:16:50.103Z,100605.27
2019-05-25T05:19:32.825Z,100604.23
2019-05-25T05:22:06.131Z,100597.52
2019-05-25T05:24:39.281Z,100594.20
2019-05-25T05:27:11.677Z,100593.69
2019-05-25T05:29:44.034Z,100587.68
2019-05-25T05:32:27.172Z,100582.51
2019-05-25T05:34:49.997Z,100573.53
2019-05-25T05:37:22.436Z,100574.72
2019-05-25T05:39:57.547Z,100569.76
2019-05-25T05:42:32.567Z,100564.16
2019-05-25T05:45:07.326Z,100557.69
2019-05-25T05:47:41.350Z,100552.69
2019-05-25T05:50:14.485Z,100554.25
2019-05-25T05:52:48.058Z,100546.06
2019-05-25T05:55:22.621Z,100534.23
2019-05-25T05:57:55.047Z,100528.61
2019-05-25T06:00:27.872Z,100528.75
2019-05-25T06:03:00.503Z,100527.03
2019-05-25T06:05:33.467Z,100518.98
2019-05-25T06:08:07.057Z,100508.40
2019-05-25T06:10:39.546Z,100512.08
2019-05-25T06:13:12.564Z,100510.75
2019-05-25T06:15:45.442Z,100508.33
2019-05-25T06:18:18.113Z,100505.23
2019-05-25T06:20:51.088Z,100502.81
2019-05-25T06:23:24.197Z,100498.25
2019-05-25T06:25:57.012Z,100492.34
2019-05-25T06:28:33.269Z,100479.11
2019-05-25T06:31:06.053Z,100480.28
2019-05-25T06:33:38.543Z,100469.38
2019-05-25T06:36:11.020Z,100466.14
2019-05-25T06:38:44.334Z,100475.78
2019-05-25T06:41:16.632Z,100460.92
2019-05-25T06:43:49.753Z,100451.17
2019-05-25T06:46:21.835Z,100448.67
2019-05-25T06:48:54.627Z,100449.02
2019-05-25T06:51:26.742Z,100442.80
2019-05-25T06:53:59.059Z,100437.80
2019-05-25T06:56:31.695Z,100427.88
2019-05-25T06:59:04.941Z,100425.20
2019-05-25T07:01:38.532Z,100423.30
2019-05-25T07:04:11.126Z,100415.33
2019-05-25T07:06:43.836Z,100418.47
2019-05-25T07:09:15.949Z,100409.59
2019-05-25T07:11:48.190Z,100410.75
2019-05-25T07:14:20.133Z,100400.27
2019-05-25T07:16:52.627Z,100397.42
2019-05-25T07:19:24.633Z,100397.64
2019-05-25T07:21:56.832Z,100381.33
2019-05-25T07:24:29.905Z,100377.62
2019-05-25T07:27:02.476Z,100381.80
2019-05-25T07:29:34.566Z,100375.02
2019-05-25T07:32:06.678Z,100379.53
2019-05-25T07:34:39.074Z,100370.19
2019-05-25T07:40:05.134Z,100355.56
2019-05-25T07:42:40.645Z,100347.88
2019-05-25T07:45:14.643Z,100345.63
2019-05-25T07:47:50.686Z,100339.97
2019-05-25T07:50:23.317Z,100333.48
2019-05-25T07:52:56.923Z,100324.63
2019-05-25T07:55:32.603Z,100319.95
2019-05-25T07:58:16.674Z,100324.22
2019-05-25T08:00:38.592Z,100312.77
2019-05-25T08:03:10.898Z,100313.27
2019-05-25T08:05:43.518Z,100310.30
2019-05-25T08:08:18.779Z,100309.45
2019-05-25T08:10:53.301Z,100296.55
2019-05-25T08:13:25.240Z,100293.73
2019-05-25T08:15:57.568Z,100297.77
2019-05-25T08:18:33.147Z,100291.09
2019-05-25T08:21:05.478Z,100292.41
2019-05-25T08:23:37.315Z,100293.50
2019-05-25T08:26:09.706Z,100294.09
2019-05-25T08:28:42.156Z,100293.63
2019-05-25T08:31:14.479Z,100287.41
2019-05-25T08:33:46.601Z,100285.48
2019-05-25T08:36:20.702Z,100281.44
2019-05-25T08:38:54.951Z,100277.63
2019-05-25T08:41:26.332Z,100278.91
2019-05-25T08:44:04.383Z,100276.15
2019-05-25T08:46:35.756Z,100283.85
2019-05-25T09:05:16.017Z,100279.23
2019-05-25T09:07:48.159Z,100276.55
2019-05-25T09:10:20.657Z,100270.59
2019-05-25T09:12:53.199Z,100273.38
2019-05-25T09:15:26.362Z,100276.36
2019-05-25T09:17:58.560Z,100269.48
2019-05-25T09:20:32.180Z,100273.17
2019-05-25T09:23:07.640Z,100275.83
2019-05-25T09:25:40.556Z,100278.39
2019-05-25T09:28:12.972Z,100263.87
2019-05-25T09:30:45.453Z,100267.50
2019-05-25T09:33:18.092Z,100266.02
2019-05-25T09:35:50.812Z,100268.83
2019-05-25T09:38:23.136Z,100262.49
2019-05-25T09:40:55.315Z,100259.64
2019-05-25T09:43:28.330Z,100265.97
2019-05-25T09:46:03.259Z,100268.31
2019-05-25T09:48:37.945Z,100269.55
2019-05-25T09:51:15.520Z,100268.03
2019-05-25T09:53:42.344Z,100264.73
2019-05-25T09:56:14.178Z,100270.92
2019-05-25T09:58:46.951Z,100274.81
2019-05-25T10:01:19.646Z,100281.63
2019-05-25T10:03:51.558Z,100287.36
2019-05-25T10:06:24.342Z,100288.89
2019-05-25T10:08:57.737Z,100297.30
2019-05-25T10:11:30.877Z,100297.02
2019-05-25T10:14:03.140Z,100290.87
2019-05-25T10:16:35.315Z,100296.21
2019-05-25T10:19:08.523Z,100293.73
2019-05-25T10:21:41.079Z,100286.42
2019-05-25T10:24:13.410Z,100289.31
2019-05-25T10:26:46.861Z,100283.34
2019-05-25T10:29:34.017Z,100279.92
2019-05-25T10:31:53.407Z,100282.88
2019-05-25T10:34:26.628Z,100286.67
2019-05-25T10:37:03.582Z,100301.61
2019-05-25T10:39:37.141Z,100318.98
2019-05-25T10:42:09.524Z,100321.53
2019-05-25T10:44:42.988Z,100329.47
2019-05-25T10:47:16.761Z,100333.48
2019-05-25T10:49:52.650Z,100335.87
2019-05-25T10:52:25.101Z,100344.16
2019-05-25T10:54:57.151Z,100352.31
2019-05-25T10:57:29.057Z,100357.33
2019-05-25T11:00:02.223Z,100369.97
2019-05-25T11:02:36.234Z,100386.14
2019-05-25T11:05:10.416Z,100381.58
2019-05-25T11:07:42.696Z,100379.30
2019-05-25T11:10:15.915Z,100387.99
2019-05-25T11:12:48.735Z,100383.98
2019-05-25T11:15:21.717Z,100365.79
2019-05-25T11:17:53.920Z,100350.18
2019-05-25T11:20:27.392Z,100350.87
2019-05-25T11:23:00.744Z,100358.52
2019-05-25T11:25:32.421Z,100367.39
2019-05-25T11:28:08.172Z,100370.64
2019-05-25T11:30:40.473Z,100371.19
2019-05-25T11:33:12.586Z,100369.05
2019-05-25T11:35:46.914Z,100381.25
2019-05-25T11:38:20.930Z,100380.27
2019-05-25T11:40:53.366Z,100392.73
2019-05-25T11:43:25.323Z,100397.23
2019-05-25T11:45:58.043Z,100384.76
2019-05-25T11:48:30.491Z,100376.06
2019-05-25T11:51:04.412Z,100374.50
2019-05-25T11:53:38.703Z,100376.88
2019-05-25T11:56:11.125Z,100386.39
2019-05-25T11:58:47.462Z,100391.85
2019-05-25T12:01:17.428Z,100410.48
2019-05-25T12:03:52.432Z,100408.34
2019-05-25T12:06:25.693Z,100418.05
2019-05-25T12:08:58.272Z,100424.04
2019-05-25T12:11:30.337Z,100433.94
2019-05-25T12:14:02.076Z,100436.22
2019-05-25T12:16:36.294Z,100443.06
2019-05-25T12:19:08.518Z,100440.86
2019-05-25T12:21:40.951Z,100440.86
2019-05-25T12:24:14.312Z,100451.08
2019-05-25T12:26:46.156Z,100459.59
2019-05-25T12:29:20.190Z,100457.48
2019-05-25T12:32:03.400Z,100454.02
2019-05-25T12:34:28.611Z,100465.20
2019-05-25T12:37:05.505Z,100470.70
2019-05-25T12:39:40.873Z,100469.58
2019-05-25T12:42:13.675Z,100487.53
2019-05-25T12:44:48.543Z,100495.95
2019-05-25T12:47:20.852Z,100508.28
2019-05-25T12:49:55.457Z,100515.80
2019-05-25T12:52:28.809Z,100519.05
2019-05-25T12:55:02.248Z,100522.55
2019-05-25T12:57:38.120Z,100526.50
2019-05-25T13:00:16.778Z,100535.81
2019-05-25T13:02:53.096Z,100546.20
2019-05-25T13:05:34.305Z,100548.91
2019-05-25T13:08:04.966Z,100557.06
2019-05-25T13:10:44.886Z,100555.61
2019-05-25T13:13:20.194Z,100555.10
2019-05-25T13:15:54.063Z,100552.68
2019-05-25T13:18:29.012Z,100561.70
2019-05-25T13:21:03.105Z,100561.36
2019-05-25T13:23:37.941Z,100573.84
2019-05-25T13:26:11.634Z,100574.17
2019-05-25T13:28:44.689Z,100576.52
2019-05-25T13:31:16.524Z,100579.94
2019-05-25T13:33:52.823Z,100591.19
2019-05-25T13:36:24.568Z,100587.24
2019-05-25T13:38:56.791Z,100592.50
2019-05-25T13:41:28.747Z,100597.67
2019-05-25T13:44:03.547Z,100605.79
2019-05-25T13:46:36.656Z,100603.04
2019-05-25T13:49:10.447Z,100598.42
2019-05-25T13:51:43.041Z,100601.09
2019-05-25T13:54:16.047Z,100598.83
2019-05-25T13:56:48.715Z,100597.19
2019-05-25T13:59:21.328Z,100580.80
2019-05-25T14:01:53.629Z,100572.31
2019-05-25T14:04:26.732Z,100578.45
2019-05-25T14:07:04.582Z,100588.44
2019-05-25T14:09:37.269Z,100592.09
2019-05-25T14:12:11.626Z,100591.68
2019-05-25T14:14:44.123Z,100591.34
2019-05-25T14:17:17.165Z,100594.84
2019-05-25T14:19:50.820Z,100593.28
2019-05-25T14:22:23.297Z,100595.10
2019-05-25T14:24:55.860Z,100604.75
2019-05-25T14:27:30.964Z,100607.66
2019-05-25T14:30:03.924Z,100616.27
2019-05-25T14:32:38.571Z,100611.88
2019-05-25T14:35:13.998Z,100619.02
2019-05-25T14:37:51.167Z,100611.46
2019-05-25T14:40:24.626Z,100621.78
2019-05-25T14:42:57.957Z,100627.52
2019-05-25T14:45:31.309Z,100634.67
2019-05-25T14:48:03.784Z,100632.25
2019-05-25T14:50:36.646Z,100638.31
2019-05-25T14:53:12.418Z,100648.34
2019-05-25T14:55:44.707Z,100652.19
2019-05-25T14:58:16.565Z,100655.58
2019-05-25T15:00:49.023Z,100653.38
2019-05-25T15:03:22.462Z,100653.38
2019-05-25T15:08:45.753Z,100669.54
2019-05-25T15:11:18.685Z,100660.03
2019-05-25T15:13:51.352Z,100663.83
2019-05-25T15:16:30.932Z,100657.34
2019-05-25T15:19:03.504Z,100654.84
2019-05-25T15:21:36.479Z,100655.81
2019-05-25T15:24:09.468Z,100657.83
2019-05-25T15:26:42.369Z,100663.05
2019-05-25T15:29:15.076Z,100661.73
2019-05-25T15:31:46.952Z,100654.09
2019-05-25T15:34:19.883Z,100651.45
2019-05-25T15:36:52.205Z,100647.54
2019-05-25T15:39:24.716Z,100652.56
2019-05-25T15:41:56.936Z,100642.53
2019-05-25T15:44:29.291Z,100644.24
2019-05-25T15:47:04.795Z,100644.63
2019-05-25T15:49:35.603Z,100648.43
2019-05-25T15:52:08.311Z,100653.63
2019-05-25T15:54:46.857Z,100649.16
2019-05-25T15:57:20.059Z,100652.49
2019-05-25T15:59:54.483Z,100657.19
2019-05-25T16:02:36.823Z,100658.16
2019-05-25T16:05:04.489Z,100664.07
2019-05-25T16:07:38.841Z,100656.30
2019-05-25T16:10:13.672Z,100653.87
2019-05-25T16:12:49.644Z,100662.22
2019-05-25T16:15:24.046Z,100638.05
2019-05-25T16:18:00.152Z,100651.83
2019-05-25T16:20:39.480Z,100662.40
2019-05-25T16:23:18.118Z,100665.62
2019-05-25T16:26:04.237Z,100664.17
2019-05-25T16:28:37.822Z,100657.59
2019-05-25T16:31:09.884Z,100655.73
2019-05-25T16:33:42.464Z,100654.13
2019-05-25T16:36:15.956Z,100644.30
2019-05-25T16:38:49.242Z,100650.14
2019-05-25T16:41:22.225Z,100641.80
2019-05-25T16:43:54.835Z,100638.25
2019-05-25T16:46:27.529Z,100631.91
2019-05-25T16:49:06.123Z,100630.45
2019-05-25T16:51:38.076Z,100628.91
2019-05-25T16:54:10.343Z,100629.23
2019-05-25T16:56:42.586Z,100628.67
2019-05-25T16:59:15.225Z,100628.59
2019-05-25T17:01:54.918Z,100623.16
2019-05-25T17:04:27.301Z,100627.52
2019-05-25T17:06:59.842Z,100616.48
2019-05-25T17:09:31.863Z,100613.32
2019-05-25T17:12:04.834Z,100608.39
2019-05-25T17:14:37.938Z,100606.94
2019-05-25T17:17:10.895Z,100605.17
2019-05-25T17:19:43.496Z,100607.84
2019-05-25T17:22:17.473Z,100605.72
2019-05-25T17:24:50.323Z,100602.98
2019-05-25T17:27:23.828Z,100595.37
2019-05-25T17:29:56.896Z,100595.30
2019-05-25T17:32:30.730Z,100589.59
2019-05-25T17:35:03.810Z,100576.39
2019-05-25T17:37:39.603Z,100576.23
2019-05-25T17:40:14.305Z,100571.39
2019-05-25T17:42:46.795Z,100570.50
2019-05-25T17:45:22.386Z,100553.62
2019-05-25T17:48:03.274Z,100554.30
2019-05-25T17:50:42.285Z,100560.03
2019-05-25T17:53:16.129Z,100558.91
2019-05-25T17:55:48.953Z,100559.55
2019-05-25T17:58:22.936Z,100557.86
2019-05-25T18:01:03.186Z,100553.46
2019-05-25T18:03:40.058Z,100550.14
2019-05-25T18:06:13.520Z,100545.83
2019-05-25T18:08:47.065Z,100548.58
2019-05-25T18:11:20.270Z,100548.02
2019-05-25T18:13:53.326Z,100552.64
2019-05-25T18:16:26.291Z,100547.36
2019-05-25T18:18:59.035Z,100543.56
2019-05-25T18:21:38.946Z,100544.55
2019-05-25T18:24:12.205Z,100547.81
2019-05-25T18:26:44.747Z,100526.15
2019-05-25T18:29:18.740Z,100526.41
2019-05-25T18:31:57.856Z,100519.44
2019-05-25T18:34:43.064Z,100523.90
2019-05-25T18:37:15.826Z,100519.77
2019-05-25T18:39:50.058Z,100514.91
2019-05-25T18:42:29.915Z,100507.30
2019-05-25T18:45:00.225Z,100513.52
2019-05-25T18:47:32.742Z,100503.64
2019-05-25T18:50:07.011Z,100502.42
2019-05-25T18:52:41.333Z,100498.53
2019-05-25T18:55:14.975Z,100495.86
2019-05-25T18:57:48.395Z,100496.67
2019-05-25T19:00:21.542Z,100494.11
2019-05-25T19:02:55.145Z,100491.83
2019-05-25T19:05:28.055Z,100492.31
2019-05-25T19:08:01.376Z,100491.35
2019-05-25T19:10:42.189Z,100499.35
2019-05-25T19:13:18.021Z,100492.47
2019-05-25T19:15:53.811Z,100493.70
2019-05-25T19:18:26.485Z,100488.76
2019-05-25T19:21:00.131Z,100491.20
2019-05-25T19:23:33.412Z,100491.02
2019-05-25T19:26:06.989Z,100488.73
2019-05-25T19:28:39.524Z,100489.72
2019-05-25T19:31:12.384Z,100492.78
2019-05-25T19:33:45.391Z,100497.64
2019-05-25T19:36:18.705Z,100499.91
2019-05-25T19:38:51.523Z,100488.84
2019-05-25T19:41:25.556Z,100492.40
2019-05-25T19:43:58.493Z,100497.81
2019-05-25T19:46:30.929Z,100499.51
2019-05-25T19:49:04.243Z,100494.50
2019-05-25T19:51:45.042Z,100497.26
2019-05-25T19:54:18.429Z,100497.09
2019-05-25T19:56:51.087Z,100496.84
2019-05-25T19:59:30.854Z,100496.64
2019-05-25T20:02:03.951Z,100500.77
2019-05-25T20:04:36.835Z,100500.84
2019-05-25T20:07:09.376Z,100502.22
2019-05-25T20:09:49.118Z,100502.70
2019-05-25T20:12:22.352Z,100498.75
2019-05-25T20:15:03.029Z,100492.91
2019-05-25T20:17:38.901Z,100495.04
2019-05-25T20:20:14.417Z,100495.83
2019-05-25T20:22:46.985Z,100496.41
2019-05-25T20:25:21.182Z,100498.22
2019-05-25T20:28:03.783Z,100492.15
2019-05-25T20:30:37.462Z,100494.78
2019-05-25T20:33:10.294Z,100495.17
2019-05-25T20:35:43.006Z,100503.44
2019-05-25T20:38:24.994Z,100495.84
2019-05-25T20:40:57.595Z,100498.89
2019-05-25T20:43:30.572Z,100505.14
2019-05-25T20:46:03.438Z,100502.45
2019-05-25T20:48:35.840Z,100510.12
2019-05-25T20:51:12.048Z,100511.17
2019-05-25T20:53:44.897Z,100514.31
2019-05-25T20:56:17.479Z,100521.52
2019-05-25T20:58:50.242Z,100526.66
2019-05-25T21:01:23.434Z,100527.55
2019-05-25T21:03:56.899Z,100531.89
2019-05-25T21:06:29.611Z,100526.17
2019-05-25T21:09:02.378Z,100528.66
2019-05-25T21:11:35.485Z,100526.52
2019-05-25T21:14:12.948Z,100528.95
2019-05-25T21:16:45.936Z,100523.88
2019-05-25T21:19:24.860Z,100523.05
2019-05-25T21:21:57.555Z,100525.64
2019-05-25T21:24:39.873Z,100526.68
2019-05-25T21:27:13.018Z,100532.19
2019-05-25T21:29:45.837Z,100527.17
2019-05-25T21:32:18.948Z,100524.09
2019-05-25T21:34:51.389Z,100520.62
2019-05-25T21:37:25.121Z,100522.72
2019-05-25T21:39:58.130Z,100522.45
2019-05-25T21:42:37.863Z,100522.34
2019-05-25T21:45:11.207Z,100524.81
2019-05-25T21:47:55.611Z,100525.69
2019-05-25T21:50:24.539Z,100527.17
2019-05-25T21:52:57.902Z,100529.05
2019-05-25T21:55:31.052Z,100529.00
2019-05-25T21:58:03.931Z,100521.63
2019-05-25T22:00:37.875Z,100527.33
2019-05-25T22:03:10.896Z,100526.77
2019-05-25T22:05:43.458Z,100529.67
2019-05-25T22:08:15.871Z,100527.63
2019-05-25T22:10:50.055Z,100538.09
2019-05-25T22:13:28.487Z,100540.28
2019-05-25T22:15:58.732Z,100534.41
2019-05-25T22:18:31.224Z,100543.95
2019-05-25T22:21:03.752Z,100546.56
2019-05-25T22:23:43.777Z,100544.96
2019-05-25T22:26:16.233Z,100543.55
2019-05-25T22:28:49.607Z,100549.41
2019-05-25T22:31:28.589Z,100550.20
2019-05-25T22:34:01.087Z,100555.03
2019-05-25T22:36:40.429Z,100551.00
2019-05-25T22:39:10.162Z,100560.83
2019-05-25T22:41:42.984Z,100558.66
2019-05-25T22:44:15.985Z,100562.89
2019-05-25T22:46:48.702Z,100560.62
2019-05-25T22:49:31.393Z,100559.86
2019-05-25T22:52:08.174Z,100560.56
2019-05-25T22:54:41.160Z,100565.80
2019-05-25T22:57:13.527Z,100571.18
